Date,TemperatureHighF,TemperatureAvgF,TemperatureLowF,DewpointHighF,DewpointAvgF,DewpointLowF,HumidityHigh,HumidityAvg,HumidityLow,PressureMaxIn,PressureMinIn,WindSpeedMaxMPH,WindSpeedAvgMPH,GustSpeedMaxMPH,PrecipitationSumIn
2013-2-1,62.0,40.3,23.0,-99.9,-99.9,-99.9,0,0,100,0.00,40.00,4,1,5,0.00
2013-2-2,61.0,41.8,25.0,-99.9,-99.9,-99.9,0,0,100,0.00,40.00,6,2,6,0.00
2013-2-3,59.0,46.1,29.0,-99.9,-99.9,-99.9,0,0,100,0.00,40.00,8,2,8,0.00
2013-2-4,61.0,50.3,39.0,-99.9,-99.9,-99.9,0,0,100,0.00,40.00,5,-44,8,0.00
2013-2-5,63.0,43.5,29.0,-99.9,-99.9,-99.9,0,0,100,0.00,40.00,3,1,4,0.00
2013-2-6,62.0,43.5,32.0,-99.9,-99.9,-99.9,0,0,100,0.00,40.00,7,2,9,0.00
2013-2-7,63.0,43.4,33.0,-99.9,-99.9,-99.9,0,0,100,0.00,40.00,3,1,4,0.00
2013-2-8,65.0,50.5,34.0,-99.9,-99.9,-99.9,0,0,100,0.00,40.00,7,3,9,0.00
2013-2-9,55.0,44.0,32.0,-99.9,-99.9,-99.9,0,0,100,0.00,40.00,10,4,17,0.00
2013-2-10,51.0,39.1,29.0,-99.9,-99.9,-99.9,0,0,100,0.00,40.00,7,2,10,0.00
2013-2-11,55.0,36.8,18.0,-99.9,-99.9,-99.9,0,0,100,0.00,40.00,8,-27,12,0.00
2013-2-12,49.0,36.8,27.0,-99.9,-99.9,-99.9,0,0,100,0.00,40.00,7,-72,8,0.00
2013-2-13,51.0,33.4,18.0,-99.9,-99.9,-99.9,0,0,100,0.00,40.00,4,1,6,0.00
2013-2-14,58.0,38.8,22.0,-99.9,-99.9,-99.9,0,0,100,0.00,40.00,4,-27,7,0.00
2013-2-15,54.0,41.7,31.0,-99.9,-99.9,-99.9,0,0,100,0.00,40.00,4,2,7,0.00
2013-2-16,59.0,39.2,19.0,-99.9,-99.9,-99.9,0,0,100,0.00,40.00,3,1,5,0.00
2013-2-17,65.0,47.6,21.0,-99.9,-99.9,-99.9,0,0,100,0.00,40.00,10,4,13,0.00
2013-2-18,61.0,49.8,38.0,-99.9,-99.9,-99.9,0,0,100,0.00,40.00,8,3,11,0.00
2013-2-19,54.0,40.8,26.0,-99.9,-99.9,-99.9,0,0,100,0.00,40.00,6,2,8,0.00
2013-2-20,57.0,41.4,30.0,-99.9,-99.9,-99.9,0,0,100,0.00,40.00,18,6,18,0.00
2013-2-21,46.0,35.2,26.0,-99.9,-99.9,-99.9,0,0,100,0.00,40.00,10,5,13,0.00
2013-2-22,52.0,37.8,25.0,-99.9,-99.9,-99.9,0,0,100,0.00,40.00,10,3,10,0.00
2013-2-23,58.0,41.6,21.0,-99.9,-99.9,-99.9,0,0,100,0.00,40.00,7,2,8,0.00
2013-2-24,56.0,39.2,29.0,-99.9,-99.9,-99.9,0,0,100,0.00,40.00,15,6,19,0.00
2013-2-25,51.0,35.3,22.0,-99.9,-99.9,-99.9,0,0,100,0.00,40.00,5,3,7,0.00
2013-2-26,62.0,38.8,18.0,-99.9,-99.9,-99.9,0,0,100,0.00,40.00,9,3,15,0.00
2013-2-27,50.0,37.1,25.0,-99.9,-99.9,-99.9,0,0,100,0.00,40.00,6,2,8,0.00
2013-2-28,56.0,36.3,18.0,-99.9,-99.9,-99.9,0,0,100,0.00,40.00,2,1,7,0.00